Time;durP1;ratioP1;P1;durP2;ratioP2;P2;SDS_P1;SDS_P2;PMS_P1;PMS_P2;Temp;Humidity;BMP_temperature;BMP_pressure;BME280_temperature;BME280_humidity;BME280_pressure;Samples;Min_cycle;Max_cycle;Signal;HPM_P1;HPM_P2
2022/07/13 00:00:25;;;;;;;5.97;2.80;;;;;;;;;;4990520;28;20058;-65
2022/07/13 00:02:52;;;;;;;9.68;4.75;;;;;;;;;;4973494;28;20060;-65
2022/07/13 00:05:18;;;;;;;8.85;4.13;;;;;;;;;;4970084;28;20077;-65
2022/07/13 00:07:46;;;;;;;5.32;2.80;;;;;;;;;;4989263;28;20054;-65
2022/07/13 00:10:13;;;;;;;5.15;2.85;;;;;;;;;;4967149;28;20114;-66
2022/07/13 00:12:40;;;;;;;5.10;2.60;;;;;;;;;;4969360;28;20066;-66
2022/07/13 00:15:07;;;;;;;5.18;2.80;;;;;;;;;;4975309;28;20062;-66
2022/07/13 00:17:34;;;;;;;4.85;2.95;;;;;;;;;;5004784;28;20061;-66
2022/07/13 00:20:02;;;;;;;6.57;3.00;;;;;;;;;;4993261;28;20058;-65
2022/07/13 00:22:29;;;;;;;4.78;2.60;;;;;;;;;;4969834;28;20125;-66
2022/07/13 00:24:57;;;;;;;6.53;2.72;;;;;;;;;;4966644;28;20046;-65
2022/07/13 00:27:23;;;;;;;;;;;;;;;;;;4969647;28;20110;-65
2022/07/13 00:29:50;;;;;;;4.82;2.75;;;;;;;;;;4968547;28;19984;-66
2022/07/13 00:32:17;;;;;;;5.28;2.90;;;;;;;;;;4975077;28;20042;-66
2022/07/13 00:34:43;;;;;;;8.73;3.65;;;;;;;;;;4988478;28;20046;-65
2022/07/13 00:37:10;;;;;;;7.05;3.08;;;;;;;;;;4973878;28;20066;-66
2022/07/13 00:39:37;;;;;;;5.82;3.10;;;;;;;;;;4969119;28;20139;-66
2022/07/13 00:42:05;;;;;;;6.15;2.92;;;;;;;;;;4965550;28;20057;-66
2022/07/13 00:44:31;;;;;;;5.63;3.13;;;;;;;;;;4985932;28;20054;-66
2022/07/13 00:46:58;;;;;;;5.13;2.80;;;;;;;;;;4988870;28;20072;-66
2022/07/13 00:49:25;;;;;;;5.88;2.88;;;;;;;;;;4981102;28;20145;-66
2022/07/13 00:51:52;;;;;;;5.97;2.92;;;;;;;;;;4989144;28;20067;-66
2022/07/13 00:54:20;;;;;;;4.95;2.90;;;;;;;;;;4980833;28;20058;-65
2022/07/13 00:56:46;;;;;;;6.28;3.28;;;;;;;;;;5004759;28;20057;-65
2022/07/13 00:59:15;;;;;;;5.43;2.92;;;;;;;;;;4976983;28;20117;-66
2022/07/13 01:01:42;;;;;;;7.15;3.33;;;;;;;;;;4969345;28;20073;-65
2022/07/13 01:04:08;;;;;;;5.60;3.00;;;;;;;;;;4947526;28;20051;-65
2022/07/13 01:06:36;;;;;;;7.47;3.22;;;;;;;;;;4952749;28;20051;-65
2022/07/13 01:09:02;;;;;;;5.03;2.73;;;;;;;;;;4953417;28;20055;-65
2022/07/13 01:11:31;;;;;;;4.82;2.90;;;;;;;;;;4959907;28;20309;-65
2022/07/13 01:13:58;;;;;;;5.32;2.83;;;;;;;;;;4972233;28;20043;-66
2022/07/13 01:16:26;;;;;;;5.60;3.00;;;;;;;;;;4958918;28;20046;-65
2022/07/13 01:18:53;;;;;;;6.35;3.08;;;;;;;;;;4953409;28;20051;-65
2022/07/13 01:21:20;;;;;;;5.75;3.25;;;;;;;;;;4952903;28;20042;-65
2022/07/13 01:23:48;;;;;;;6.38;2.78;;;;;;;;;;4988396;28;20141;-65
2022/07/13 01:26:15;;;;;;;10.80;5.78;;;;;;;;;;4981408;28;20145;-65
2022/07/13 01:28:41;;;;;;;7.07;3.83;;;;;;;;;;4972367;28;20061;-65
2022/07/13 01:31:08;;;;;;;5.68;2.95;;;;;;;;;;4971306;28;20062;-66
2022/07/13 01:33:35;;;;;;;5.93;3.42;;;;;;;;;;4969915;28;20051;-65
2022/07/13 01:36:01;;;;;;;6.70;3.28;;;;;;;;;;4972060;28;20058;-65
2022/07/13 01:38:28;;;;;;;9.45;4.15;;;;;;;;;;4967222;28;20058;-65
2022/07/13 01:41:02;;;;;;;7.00;3.22;;;;;;;;;;4988782;28;20058;-65
2022/07/13 01:43:29;;;;;;;9.25;4.65;;;;;;;;;;4981820;28;20058;-65
2022/07/13 01:45:55;;;;;;;9.15;4.90;;;;;;;;;;4986812;28;20062;-65
2022/07/13 01:48:22;;;;;;;8.57;4.15;;;;;;;;;;4972728;28;20062;-65
2022/07/13 01:50:51;;;;;;;7.03;3.17;;;;;;;;;;4972445;28;20058;-65
2022/07/13 01:53:17;;;;;;;8.45;3.20;;;;;;;;;;4966980;28;20093;-64
2022/07/13 01:55:44;;;;;;;5.47;2.80;;;;;;;;;;4971638;28;20057;-65
2022/07/13 01:58:12;;;;;;;5.07;2.67;;;;;;;;;;4968268;28;20050;-66
2022/07/13 02:00:41;;;;;;;5.07;2.85;;;;;;;;;;4975026;28;20053;-65
2022/07/13 02:03:07;;;;;;;6.60;2.65;;;;;;;;;;4959381;28;20055;-65
2022/07/13 02:05:34;;;;;;;5.47;2.90;;;;;;;;;;4955876;28;20046;-64
2022/07/13 02:08:01;;;;;;;5.65;2.78;;;;;;;;;;4958330;28;20117;-66
2022/07/13 02:10:35;;;;;;;7.57;3.10;;;;;;;;;;4937288;29;20142;-64
2022/07/13 02:13:02;;;;;;;5.53;2.97;;;;;;;;;;4931012;29;20154;-64
2022/07/13 02:15:30;;;;;;;25.58;5.38;;;;;;;;;;4954086;28;20055;-66
2022/07/13 02:17:57;;;;;;;6.45;3.30;;;;;;;;;;4965821;28;20054;-65
2022/07/13 02:20:24;;;;;;;9.60;4.25;;;;;;;;;;4953326;28;20058;-65
2022/07/13 02:22:50;;;;;;;7.75;3.95;;;;;;;;;;4973402;28;20059;-64
2022/07/13 02:25:17;;;;;;;8.25;3.35;;;;;;;;;;4947502;28;20051;-64
2022/07/13 02:27:44;;;;;;;6.15;2.50;;;;;;;;;;4952602;29;20059;-65
2022/07/13 02:30:13;;;;;;;9.93;4.30;;;;;;;;;;4947252;29;20051;-64
2022/07/13 02:32:42;;;;;;;6.53;3.33;;;;;;;;;;4952769;29;20050;-65
2022/07/13 02:35:09;;;;;;;9.15;4.07;;;;;;;;;;4946602;29;20118;-64
2022/07/13 02:37:36;;;;;;;9.68;3.60;;;;;;;;;;4954930;28;20055;-64
2022/07/13 02:40:03;;;;;;;5.15;2.83;;;;;;;;;;4962737;28;20052;-64
2022/07/13 02:42:30;;;;;;;4.82;2.60;;;;;;;;;;4975329;28;20046;-66
2022/07/13 02:44:57;;;;;;;6.13;3.00;;;;;;;;;;4964786;28;20117;-65
2022/07/13 02:47:23;;;;;;;11.20;4.18;;;;;;;;;;4970599;28;20057;-64
2022/07/13 02:49:52;;;;;;;10.45;4.22;;;;;;;;;;4957437;28;20045;-64
2022/07/13 02:52:18;;;;;;;5.50;2.35;;;;;;;;;;4955634;28;20061;-64
2022/07/13 02:54:45;;;;;;;10.18;3.92;;;;;;;;;;4946857;29;20054;-64
2022/07/13 02:57:11;;;;;;;5.13;2.70;;;;;;;;;;4951345;29;20058;-63
2022/07/13 02:59:38;;;;;;;5.38;2.47;;;;;;;;;;4949895;28;20054;-64
2022/07/13 03:02:06;;;;;;;4.28;2.40;;;;;;;;;;4969358;28;20051;-64
2022/07/13 03:04:32;;;;;;;6.97;3.88;;;;;;;;;;4972484;28;20058;-63
2022/07/13 03:07:01;;;;;;;5.50;2.90;;;;;;;;;;4950577;28;20054;-63
2022/07/13 03:09:27;;;;;;;;;;;;;;;;;;4954998;28;20061;-64
2022/07/13 03:11:54;;;;;;;7.47;3.80;;;;;;;;;;4959705;28;19929;-64
2022/07/13 03:14:21;;;;;;;3.75;2.17;;;;;;;;;;4970803;28;20134;-63
2022/07/13 03:16:47;;;;;;;5.47;2.58;;;;;;;;;;4945328;29;20066;-64
2022/07/13 03:19:15;;;;;;;7.82;3.15;;;;;;;;;;4968341;28;20051;-64
2022/07/13 03:21:41;;;;;;;4.50;2.33;;;;;;;;;;4948327;28;20086;-64
2022/07/13 03:24:09;;;;;;;7.10;2.95;;;;;;;;;;4970547;28;20109;-64
2022/07/13 03:26:36;;;;;;;3.67;2.10;;;;;;;;;;4960867;28;20047;-64
2022/07/13 03:29:02;;;;;;;6.47;3.33;;;;;;;;;;4966093;28;20055;-65
2022/07/13 03:31:29;;;;;;;5.85;2.60;;;;;;;;;;4965205;28;20046;-64
2022/07/13 03:33:56;;;;;;;6.85;2.50;;;;;;;;;;4964638;28;20055;-64
2022/07/13 03:36:22;;;;;;;7.82;4.10;;;;;;;;;;4965777;28;20047;-64
2022/07/13 03:38:49;;;;;;;7.85;3.58;;;;;;;;;;4948973;28;20063;-64
2022/07/13 03:41:18;;;;;;;4.90;2.15;;;;;;;;;;4947891;28;20039;-65
2022/07/13 03:43:44;;;;;;;3.97;2.33;;;;;;;;;;4962935;28;20058;-64
2022/07/13 03:46:11;;;;;;;4.55;2.20;;;;;;;;;;4970455;28;20050;-64
2022/07/13 03:48:38;;;;;;;7.05;3.17;;;;;;;;;;4964298;28;20054;-64
2022/07/13 03:51:11;;;;;;;6.15;3.25;;;;;;;;;;4951564;28;20039;-65
2022/07/13 03:53:37;;;;;;;5.43;2.45;;;;;;;;;;4948422;28;20065;-65
2022/07/13 03:56:05;;;;;;;6.82;3.53;;;;;;;;;;4950420;28;20070;-65
2022/07/13 03:58:32;;;;;;;8.95;3.45;;;;;;;;;;4947703;28;20059;-64
2022/07/13 04:00:59;;;;;;;5.63;2.20;;;;;;;;;;4965007;28;20058;-64
2022/07/13 04:03:26;;;;;;;13.45;3.85;;;;;;;;;;4945649;28;20046;-64
2022/07/13 04:05:53;;;;;;;5.15;2.42;;;;;;;;;;4927659;28;20051;-64
2022/07/13 04:08:19;;;;;;;10.50;3.92;;;;;;;;;;4933570;28;20134;-64
2022/07/13 04:10:46;;;;;;;6.43;2.60;;;;;;;;;;4936044;28;20051;-64
2022/07/13 04:13:13;;;;;;;3.28;2.05;;;;;;;;;;4935565;29;20109;-64
2022/07/13 04:15:41;;;;;;;3.65;2.17;;;;;;;;;;4941558;29;20074;-64
2022/07/13 04:18:08;;;;;;;8.80;3.65;;;;;;;;;;4937309;29;20078;-64
2022/07/13 04:20:35;;;;;;;9.57;3.40;;;;;;;;;;4934684;28;20150;-65
2022/07/13 04:23:01;;;;;;;10.88;4.55;;;;;;;;;;4940106;29;20047;-64
2022/07/13 04:25:28;;;;;;;14.45;5.20;;;;;;;;;;4936704;28;20051;-64
2022/07/13 04:27:55;;;;;;;11.93;5.03;;;;;;;;;;4943747;29;20051;-64
2022/07/13 04:30:21;;;;;;;9.35;4.38;;;;;;;;;;4931257;28;20067;-65
2022/07/13 04:32:49;;;;;;;5.38;2.85;;;;;;;;;;4941377;29;20152;-65
2022/07/13 04:35:16;;;;;;;13.00;4.32;;;;;;;;;;4939863;28;20059;-64
2022/07/13 04:37:43;;;;;;;12.43;4.20;;;;;;;;;;4935110;29;20053;-66
2022/07/13 04:40:10;;;;;;;7.55;3.30;;;;;;;;;;4937491;29;20070;-66
2022/07/13 04:42:37;;;;;;;8.57;4.28;;;;;;;;;;4932694;28;20101;-65
2022/07/13 04:45:03;;;;;;;10.05;4.80;;;;;;;;;;4938694;28;20059;-65
2022/07/13 04:47:30;;;;;;;10.48;3.70;;;;;;;;;;4932831;28;20057;-65
2022/07/13 04:50:00;;;;;;;8.60;4.15;;;;;;;;;;4952036;28;20102;-66
2022/07/13 04:52:27;;;;;;;17.13;7.13;;;;;;;;;;4936769;28;20062;-66
2022/07/13 04:54:53;;;;;;;14.18;7.38;;;;;;;;;;4934898;29;20161;-66
2022/07/13 04:57:20;;;;;;;18.77;8.82;;;;;;;;;;4941181;28;20059;-66
2022/07/13 04:59:47;;;;;;;7.68;3.60;;;;;;;;;;4923429;28;20080;-65
2022/07/13 05:02:14;;;;;;;7.88;3.85;;;;;;;;;;4941574;28;20061;-66
2022/07/13 05:04:40;;;;;;;10.45;5.15;;;;;;;;;;4947876;28;20054;-66
2022/07/13 05:07:08;;;;;;;7.20;3.80;;;;;;;;;;4962251;28;20054;-68
2022/07/13 05:09:35;;;;;;;6.18;3.05;;;;;;;;;;4952868;28;20046;-66
2022/07/13 05:12:01;;;;;;;7.30;3.10;;;;;;;;;;4969049;28;20057;-66
2022/07/13 05:14:28;;;;;;;8.50;4.40;;;;;;;;;;4959860;28;20147;-65
2022/07/13 05:16:55;;;;;;;5.35;2.90;;;;;;;;;;4959876;28;20057;-66
2022/07/13 05:19:21;;;;;;;11.48;6.20;;;;;;;;;;4969219;28;20058;-67
2022/07/13 05:21:48;;;;;;;16.55;6.72;;;;;;;;;;4955104;28;20080;-65
2022/07/13 05:24:16;;;;;;;15.30;7.20;;;;;;;;;;4957230;28;20046;-65
2022/07/13 05:26:43;;;;;;;4.63;2.63;;;;;;;;;;4953573;28;20054;-66
2022/07/13 05:29:09;;;;;;;17.33;5.72;;;;;;;;;;4970183;28;20061;-66
2022/07/13 05:31:36;;;;;;;8.50;4.43;;;;;;;;;;4977580;28;20054;-66
2022/07/13 05:34:02;;;;;;;3.67;2.05;;;;;;;;;;4966344;28;20050;-66
2022/07/13 05:36:29;;;;;;;10.90;6.00;;;;;;;;;;4965605;28;20062;-66
2022/07/13 05:38:56;;;;;;;19.65;10.23;;;;;;;;;;4956292;28;20055;-67
2022/07/13 05:41:24;;;;;;;27.77;15.27;;;;;;;;;;4968682;28;20058;-66
2022/07/13 05:43:51;;;;;;;23.90;11.02;;;;;;;;;;4967082;28;20069;-65
2022/07/13 05:46:17;;;;;;;18.02;8.98;;;;;;;;;;4975458;28;20077;-66
2022/07/13 05:48:44;;;;;;;9.43;4.43;;;;;;;;;;4966371;28;20081;-65
2022/07/13 05:51:11;;;;;;;15.50;6.35;;;;;;;;;;4975770;28;20050;-67
2022/07/13 05:53:37;;;;;;;12.88;7.65;;;;;;;;;;4972119;28;20077;-65
2022/07/13 05:56:04;;;;;;;10.82;6.32;;;;;;;;;;4967390;28;20082;-66
2022/07/13 05:58:33;;;;;;;14.23;7.13;;;;;;;;;;4974752;28;20050;-66
2022/07/13 06:01:00;;;;;;;13.10;6.50;;;;;;;;;;4963421;28;20101;-66
2022/07/13 06:03:26;;;;;;;6.60;3.35;;;;;;;;;;4974793;28;20058;-66
2022/07/13 06:05:53;;;;;;;14.07;6.32;;;;;;;;;;4962102;28;20050;-67
2022/07/13 06:08:20;;;;;;;14.85;5.93;;;;;;;;;;4954517;28;20055;-67
2022/07/13 06:10:49;;;;;;;12.10;6.50;;;;;;;;;;4951991;28;20153;-67
2022/07/13 06:13:15;;;;;;;12.60;5.88;;;;;;;;;;4973372;28;20054;-66
2022/07/13 06:15:43;;;;;;;11.73;7.00;;;;;;;;;;4973204;28;20058;-67
2022/07/13 06:18:10;;;;;;;18.70;7.78;;;;;;;;;;4952729;28;20065;-66
2022/07/13 06:20:37;;;;;;;10.48;4.70;;;;;;;;;;4955229;28;20066;-65
2022/07/13 06:23:14;;;;;;;20.38;5.95;;;;;;;;;;4962859;28;20061;-67
2022/07/13 06:25:41;;;;;;;11.93;5.38;;;;;;;;;;4972847;28;20136;-66
2022/07/13 06:28:08;;;;;;;8.07;4.22;;;;;;;;;;4968863;28;20038;-65
2022/07/13 06:30:35;;;;;;;10.82;5.90;;;;;;;;;;4974696;28;20062;-65
2022/07/13 06:33:03;;;;;;;8.90;4.13;;;;;;;;;;4969164;28;20042;-67
2022/07/13 06:35:30;;;;;;;9.65;4.32;;;;;;;;;;4974388;28;20053;-66
2022/07/13 06:37:58;;;;;;;11.80;5.03;;;;;;;;;;4968965;28;20050;-67
2022/07/13 06:40:27;;;;;;;6.22;3.53;;;;;;;;;;4974378;28;20127;-66
2022/07/13 06:42:54;;;;;;;6.18;2.53;;;;;;;;;;4968481;28;20054;-65
2022/07/13 06:45:22;;;;;;;11.25;5.35;;;;;;;;;;4974080;28;20169;-67
2022/07/13 06:47:49;;;;;;;10.48;4.90;;;;;;;;;;4968130;28;20062;-67
2022/07/13 06:50:17;;;;;;;8.95;5.15;;;;;;;;;;4974173;28;20062;-67
2022/07/13 06:52:44;;;;;;;11.57;5.13;;;;;;;;;;4974758;28;20062;-67
2022/07/13 06:55:11;;;;;;;5.90;2.95;;;;;;;;;;4969088;28;20062;-67
2022/07/13 06:57:37;;;;;;;11.07;5.13;;;;;;;;;;4973911;28;20072;-65
2022/07/13 07:00:06;;;;;;;11.10;6.28;;;;;;;;;;4968654;28;20096;-66
2022/07/13 07:02:32;;;;;;;12.88;5.97;;;;;;;;;;4973317;28;20061;-66
2022/07/13 07:04:59;;;;;;;13.07;5.85;;;;;;;;;;4968578;28;20047;-67
2022/07/13 07:07:27;;;;;;;9.38;5.03;;;;;;;;;;4973697;28;20058;-65
2022/07/13 07:09:54;;;;;;;8.52;3.35;;;;;;;;;;4967406;28;20058;-67
2022/07/13 07:12:20;;;;;;;9.98;4.53;;;;;;;;;;4973758;28;20073;-65
2022/07/13 07:14:47;;;;;;;10.05;5.13;;;;;;;;;;4967981;28;20058;-64
2022/07/13 07:17:16;;;;;;;10.10;4.32;;;;;;;;;;4973071;28;20063;-65
2022/07/13 07:19:44;;;;;;;8.63;4.03;;;;;;;;;;4971652;28;20129;-66
2022/07/13 07:22:11;;;;;;;7.35;3.67;;;;;;;;;;4990535;28;20078;-64
2022/07/13 07:24:39;;;;;;;8.27;4.03;;;;;;;;;;4982277;28;20050;-66
2022/07/13 07:27:07;;;;;;;11.23;3.50;;;;;;;;;;4973318;28;20153;-66
2022/07/13 07:29:35;;;;;;;11.93;4.27;;;;;;;;;;4968842;28;20058;-67
2022/07/13 07:32:02;;;;;;;8.15;4.18;;;;;;;;;;4973572;28;20050;-66
2022/07/13 07:34:29;;;;;;;8.60;4.82;;;;;;;;;;4969529;28;20124;-64
2022/07/13 07:36:56;;;;;;;9.65;4.63;;;;;;;;;;4973155;28;20050;-67
2022/07/13 07:39:26;;;;;;;9.27;3.88;;;;;;;;;;4973969;28;20059;-67
2022/07/13 07:41:54;;;;;;;5.43;3.03;;;;;;;;;;4968700;28;20050;-67
2022/07/13 07:44:20;;;;;;;12.70;5.15;;;;;;;;;;4972818;28;20079;-66
2022/07/13 07:46:47;;;;;;;12.27;5.05;;;;;;;;;;4967908;28;20046;-66
2022/07/13 07:49:15;;;;;;;11.88;4.78;;;;;;;;;;4973566;28;20121;-66
2022/07/13 07:51:41;;;;;;;15.73;5.25;;;;;;;;;;4967754;28;20050;-67
2022/07/13 07:54:08;;;;;;;9.35;4.68;;;;;;;;;;4971523;28;20046;-66
2022/07/13 07:56:35;;;;;;;15.45;4.97;;;;;;;;;;4973037;28;20073;-67
2022/07/13 07:59:03;;;;;;;8.27;3.80;;;;;;;;;;4988970;28;20050;-65
2022/07/13 08:01:30;;;;;;;8.05;4.47;;;;;;;;;;4968755;28;20130;-67
2022/07/13 08:03:57;;;;;;;9.20;4.80;;;;;;;;;;4955281;28;20098;-68
2022/07/13 08:06:23;;;;;;;10.02;4.20;;;;;;;;;;4967159;28;20125;-66
2022/07/13 08:08:50;;;;;;;9.35;4.13;;;;;;;;;;4972647;28;20062;-64
2022/07/13 08:11:17;;;;;;;8.98;4.57;;;;;;;;;;4968165;28;20078;-67
2022/07/13 08:13:44;;;;;;;9.00;4.22;;;;;;;;;;4971847;28;20054;-64
2022/07/13 08:16:12;;;;;;;10.02;4.00;;;;;;;;;;4966324;28;20042;-65
2022/07/13 08:18:39;;;;;;;12.82;5.05;;;;;;;;;;4973100;28;20072;-64
2022/07/13 08:21:06;;;;;;;11.73;4.28;;;;;;;;;;4972992;28;20057;-64
2022/07/13 08:26:17;;;;;;;9.65;3.72;;;;;;;;;;4972297;28;20053;-66
2022/07/13 08:28:44;;;;;;;10.70;4.65;;;;;;;;;;4967972;28;20055;-65
2022/07/13 08:31:11;;;;;;;9.63;4.40;;;;;;;;;;4972871;28;20145;-67
2022/07/13 08:39:08;;;;;;;11.93;4.43;;;;;;;;;;4967744;28;20108;-64
2022/07/13 08:41:35;;;;;;;9.57;4.03;;;;;;;;;;4972858;28;20120;-67
2022/07/13 08:44:02;;;;;;;12.15;3.95;;;;;;;;;;4966914;28;20093;-66
2022/07/13 08:46:29;;;;;;;11.05;3.70;;;;;;;;;;4971664;28;20062;-65
2022/07/13 08:48:57;;;;;;;12.57;4.82;;;;;;;;;;4967497;28;20069;-67
2022/07/13 08:51:23;;;;;;;;;;;;;;;;;;4972808;28;20061;-67
2022/07/13 08:53:51;;;;;;;8.93;4.60;;;;;;;;;;4966945;28;19929;-66
2022/07/13 08:56:17;;;;;;;7.25;3.45;;;;;;;;;;4972035;28;20058;-65
2022/07/13 08:58:44;;;;;;;7.18;3.33;;;;;;;;;;4967461;28;20054;-67
2022/07/13 09:01:11;;;;;;;15.07;4.60;;;;;;;;;;4971879;28;20069;-66
2022/07/13 09:03:38;;;;;;;16.50;5.00;;;;;;;;;;4980705;28;20050;-67
2022/07/13 09:06:06;;;;;;;5.80;2.90;;;;;;;;;;4991553;28;20080;-66
2022/07/13 09:08:40;;;;;;;9.93;4.20;;;;;;;;;;4985576;28;20061;-67
2022/07/13 09:11:07;;;;;;;13.90;5.68;;;;;;;;;;4990277;28;20045;-66
2022/07/13 09:13:36;;;;;;;9.25;4.15;;;;;;;;;;4981886;28;20059;-67
2022/07/13 09:16:19;;;;;;;14.57;4.82;;;;;;;;;;4959933;28;20122;-67
2022/07/13 09:18:47;;;;;;;8.07;3.63;;;;;;;;;;4966474;28;20055;-67
2022/07/13 09:21:15;;;;;;;15.37;5.10;;;;;;;;;;4972313;28;20062;-66
2022/07/13 09:23:41;;;;;;;10.93;4.68;;;;;;;;;;4968508;28;20113;-66
2022/07/13 09:26:08;;;;;;;9.65;4.00;;;;;;;;;;4990374;28;20054;-64
2022/07/13 09:28:42;;;;;;;9.32;4.65;;;;;;;;;;4991378;28;20057;-66
2022/07/13 09:31:11;;;;;;;11.77;3.88;;;;;;;;;;4984806;28;20126;-67
2022/07/13 09:33:38;;;;;;;11.55;4.22;;;;;;;;;;4991035;28;20054;-67
2022/07/13 09:36:11;;;;;;;9.02;3.63;;;;;;;;;;4969207;28;20121;-67
2022/07/13 09:38:41;;;;;;;8.52;3.95;;;;;;;;;;4970591;28;20105;-67
2022/07/13 09:41:20;;;;;;;9.35;3.38;;;;;;;;;;4964403;28;20089;-66
2022/07/13 09:46:57;;;;;;;10.50;4.07;;;;;;;;;;4966097;28;20077;-66
2022/07/13 09:49:34;;;;;;;8.20;3.72;;;;;;;;;;4971806;28;20046;-66
2022/07/13 09:52:02;;;;;;;10.07;4.18;;;;;;;;;;4949145;28;20051;-66
2022/07/13 09:54:31;;;;;;;5.90;3.22;;;;;;;;;;4965969;28;20133;-66
2022/07/13 09:56:59;;;;;;;9.32;2.67;;;;;;;;;;4982690;28;20054;-66
2022/07/13 09:59:28;;;;;;;7.32;3.47;;;;;;;;;;4990691;28;20050;-66
2022/07/13 10:01:55;;;;;;;6.55;2.70;;;;;;;;;;4970225;28;20060;-66
2022/07/13 10:04:23;;;;;;;7.13;2.90;;;;;;;;;;4961308;28;20074;-66
2022/07/13 10:06:50;;;;;;;5.75;2.58;;;;;;;;;;4964089;28;20070;-66
2022/07/13 10:09:20;;;;;;;6.10;3.00;;;;;;;;;;4969407;28;20054;-65
2022/07/13 10:11:48;;;;;;;6.78;3.08;;;;;;;;;;4956487;28;20058;-66
2022/07/13 10:14:17;;;;;;;5.65;2.78;;;;;;;;;;4952718;28;20078;-65
2022/07/13 10:16:44;;;;;;;7.25;2.80;;;;;;;;;;4962913;28;20073;-66
2022/07/13 10:19:12;;;;;;;9.63;3.75;;;;;;;;;;4973049;28;20061;-65
2022/07/13 10:21:50;;;;;;;8.30;3.22;;;;;;;;;;4974937;28;20068;-65
2022/07/13 10:24:17;;;;;;;11.07;2.70;;;;;;;;;;4969294;28;20058;-65
2022/07/13 10:26:47;;;;;;;7.60;2.70;;;;;;;;;;4955748;28;20061;-65
2022/07/13 10:29:15;;;;;;;5.68;2.78;;;;;;;;;;4965859;28;20050;-66
2022/07/13 10:31:42;;;;;;;3.90;2.15;;;;;;;;;;4973802;28;20085;-66
2022/07/13 10:34:10;;;;;;;4.90;2.55;;;;;;;;;;4967732;28;20085;-65
2022/07/13 10:36:53;;;;;;;5.18;2.22;;;;;;;;;;4971899;28;20126;-66
2022/07/13 10:39:22;;;;;;;4.45;2.50;;;;;;;;;;4965972;28;20061;-66
2022/07/13 10:41:56;;;;;;;5.07;2.60;;;;;;;;;;4973283;28;20064;-66
2022/07/13 10:44:43;;;;;;;8.68;3.08;;;;;;;;;;4969792;28;20069;-65
2022/07/13 10:47:11;;;;;;;7.30;2.70;;;;;;;;;;4954654;28;20054;-65
2022/07/13 10:49:41;;;;;;;5.70;2.38;;;;;;;;;;4955022;28;20059;-65
2022/07/13 10:52:41;;;;;;;5.13;2.10;;;;;;;;;;4954151;28;20050;-65
2022/07/13 10:55:26;;;;;;;8.15;2.25;;;;;;;;;;4915707;29;20087;-65
2022/07/13 10:57:53;;;;;;;4.90;1.58;;;;;;;;;;4893665;29;20058;-66
2022/07/13 11:00:36;;;;;;;4.45;1.70;;;;;;;;;;4929125;28;20054;-66
2022/07/13 11:03:05;;;;;;;2.72;1.73;;;;;;;;;;4971526;28;20054;-65
2022/07/13 11:05:34;;;;;;;6.53;1.70;;;;;;;;;;4979994;28;20047;-64
2022/07/13 11:08:11;;;;;;;3.92;1.63;;;;;;;;;;4979358;28;20134;-65
2022/07/13 11:10:39;;;;;;;5.73;1.47;;;;;;;;;;4987473;28;20054;-66
2022/07/13 11:13:09;;;;;;;2.67;1.50;;;;;;;;;;4970476;28;20341;-64
2022/07/13 11:15:43;;;;;;;4.00;1.77;;;;;;;;;;4968763;28;20059;-65
2022/07/13 11:18:27;;;;;;;10.77;1.80;;;;;;;;;;4962698;28;20054;-65
2022/07/13 11:21:00;;;;;;;4.93;1.70;;;;;;;;;;4971272;28;20053;-65
2022/07/13 11:26:14;;;;;;;5.13;1.90;;;;;;;;;;4966746;28;20058;-65
2022/07/13 11:28:46;;;;;;;2.42;1.48;;;;;;;;;;4967241;28;20050;-65
2022/07/13 11:31:14;;;;;;;5.80;1.48;;;;;;;;;;4979078;28;20064;-65
2022/07/13 11:33:49;;;;;;;6.50;1.70;;;;;;;;;;4989393;28;20050;-65
2022/07/13 11:36:18;;;;;;;3.92;1.70;;;;;;;;;;4998155;28;20054;-65
2022/07/13 11:38:45;;;;;;;3.15;1.35;;;;;;;;;;4991782;28;20046;-65
2022/07/13 11:41:17;;;;;;;3.22;1.52;;;;;;;;;;4971958;28;20059;-66
2022/07/13 11:43:46;;;;;;;2.55;1.40;;;;;;;;;;4970526;28;20084;-65
2022/07/13 11:46:14;;;;;;;3.38;1.40;;;;;;;;;;4965941;28;20058;-65
2022/07/13 11:48:41;;;;;;;8.80;1.95;;;;;;;;;;4969937;28;20051;-66
2022/07/13 11:51:09;;;;;;;4.07;1.50;;;;;;;;;;4967482;28;20059;-66
2022/07/13 11:53:35;;;;;;;7.50;1.73;;;;;;;;;;4984802;28;20046;-65
2022/07/13 11:56:04;;;;;;;5.57;1.50;;;;;;;;;;4983066;28;20061;-65
2022/07/13 11:58:32;;;;;;;6.15;1.40;;;;;;;;;;4970436;28;20105;-65
2022/07/13 12:00:59;;;;;;;4.88;1.50;;;;;;;;;;4968386;28;20050;-65
2022/07/13 12:03:32;;;;;;;2.50;1.40;;;;;;;;;;4966134;28;20055;-66
2022/07/13 12:06:03;;;;;;;3.00;1.45;;;;;;;;;;4965647;28;20093;-66
2022/07/13 12:08:30;;;;;;;2.97;1.20;;;;;;;;;;4966771;28;20058;-65
2022/07/13 12:10:57;;;;;;;2.73;1.40;;;;;;;;;;4983494;28;20112;-66
2022/07/13 12:13:24;;;;;;;2.42;1.48;;;;;;;;;;4989502;28;20365;-66
2022/07/13 12:15:51;;;;;;;3.75;1.42;;;;;;;;;;4975383;28;20058;-66
2022/07/13 12:18:17;;;;;;;3.85;1.30;;;;;;;;;;4987724;28;20050;-66
2022/07/13 12:20:46;;;;;;;2.40;1.25;;;;;;;;;;4964056;28;20058;-65
2022/07/13 12:23:13;;;;;;;4.72;1.55;;;;;;;;;;4969287;28;20061;-66
2022/07/13 12:25:40;;;;;;;4.60;1.50;;;;;;;;;;4971317;28;20050;-66
2022/07/13 12:28:08;;;;;;;3.38;1.50;;;;;;;;;;4983430;28;20336;-66
2022/07/13 12:30:37;;;;;;;;;;;;;;;;;;4985077;28;20042;-67
2022/07/13 12:33:05;;;;;;;3.45;1.20;;;;;;;;;;4983299;28;19925;-65
2022/07/13 12:35:32;;;;;;;5.65;1.50;;;;;;;;;;4982223;28;20043;-65
2022/07/13 12:38:01;;;;;;;2.20;1.20;;;;;;;;;;4981926;28;20074;-65
2022/07/13 12:40:36;;;;;;;2.35;1.15;;;;;;;;;;4982597;28;20053;-65
2022/07/13 12:43:03;;;;;;;2.90;1.50;;;;;;;;;;5001980;28;20131;-66
2022/07/13 12:45:30;;;;;;;2.90;1.27;;;;;;;;;;5006946;28;20073;-66
2022/07/13 12:47:57;;;;;;;4.78;1.60;;;;;;;;;;4978549;28;20058;-65
2022/07/13 12:50:27;;;;;;;3.80;1.40;;;;;;;;;;4988140;28;20061;-65
2022/07/13 12:53:02;;;;;;;3.90;1.55;;;;;;;;;;4976714;28;20069;-65
2022/07/13 12:55:29;;;;;;;2.65;1.30;;;;;;;;;;4989338;28;20133;-65
2022/07/13 12:57:55;;;;;;;5.40;1.60;;;;;;;;;;4964340;28;20057;-65
2022/07/13 13:00:25;;;;;;;4.88;1.50;;;;;;;;;;4984587;28;20051;-65
2022/07/13 13:02:52;;;;;;;5.47;1.60;;;;;;;;;;4961461;28;20058;-66
2022/07/13 13:05:18;;;;;;;5.18;1.67;;;;;;;;;;4969055;28;20059;-66
2022/07/13 13:07:45;;;;;;;4.07;1.95;;;;;;;;;;4955625;28;20104;-65
2022/07/13 13:10:13;;;;;;;4.05;1.60;;;;;;;;;;4952061;28;20051;-66
2022/07/13 13:12:40;;;;;;;6.60;1.50;;;;;;;;;;4947009;28;20055;-66
2022/07/13 13:15:07;;;;;;;3.63;1.58;;;;;;;;;;4948629;29;20051;-66
2022/07/13 13:17:34;;;;;;;5.97;2.00;;;;;;;;;;4945085;28;20051;-66
2022/07/13 13:20:00;;;;;;;11.20;2.38;;;;;;;;;;4962787;28;20298;-65
2022/07/13 13:22:27;;;;;;;2.13;1.27;;;;;;;;;;4961921;28;20077;-66
2022/07/13 13:24:54;;;;;;;3.53;1.60;;;;;;;;;;4948518;29;20143;-65
2022/07/13 13:27:22;;;;;;;2.58;1.35;;;;;;;;;;4943717;28;20047;-65
2022/07/13 13:32:33;;;;;;;3.53;1.50;;;;;;;;;;4945865;28;20052;-66
2022/07/13 13:34:59;;;;;;;3.67;1.55;;;;;;;;;;4948073;29;20051;-67
2022/07/13 13:37:26;;;;;;;5.95;1.48;;;;;;;;;;4949802;28;20047;-65
2022/07/13 13:39:54;;;;;;;2.75;1.50;;;;;;;;;;4956062;28;20051;-65
2022/07/13 13:42:22;;;;;;;3.38;1.92;;;;;;;;;;4967416;28;20098;-66
2022/07/13 13:44:48;;;;;;;;;;;;;;;;;;4956063;28;20049;-66
2022/07/13 13:47:15;;;;;;;3.50;1.65;;;;;;;;;;4967602;28;20033;-66
2022/07/13 13:49:41;;;;;;;4.47;1.60;;;;;;;;;;4951998;28;20039;-66
2022/07/13 13:52:08;;;;;;;4.65;1.95;;;;;;;;;;4953422;28;20062;-65
2022/07/13 13:54:35;;;;;;;2.40;1.30;;;;;;;;;;4952979;28;20074;-66
2022/07/13 13:57:02;;;;;;;14.27;1.88;;;;;;;;;;4949422;29;20047;-67
2022/07/13 13:59:34;;;;;;;4.60;1.70;;;;;;;;;;4948133;28;20137;-67
2022/07/13 14:02:01;;;;;;;6.05;1.75;;;;;;;;;;4971160;28;20062;-65
2022/07/13 14:04:27;;;;;;;5.85;1.70;;;;;;;;;;4987770;28;20069;-66
2022/07/13 14:06:54;;;;;;;6.47;1.80;;;;;;;;;;4993858;28;20056;-66
2022/07/13 14:09:20;;;;;;;3.13;1.52;;;;;;;;;;4987959;28;20042;-66
2022/07/13 14:11:47;;;;;;;2.47;1.42;;;;;;;;;;4994406;28;20056;-66
2022/07/13 14:14:14;;;;;;;4.82;1.75;;;;;;;;;;4986195;28;20050;-66
2022/07/13 14:16:42;;;;;;;6.10;1.50;;;;;;;;;;4974016;28;20054;-66
2022/07/13 14:19:08;;;;;;;;;;;;;;;;;;4973803;28;20050;-66
2022/07/13 14:21:35;;;;;;;2.58;1.40;;;;;;;;;;4981738;28;19925;-66
2022/07/13 14:24:02;;;;;;;5.57;1.52;;;;;;;;;;4993969;28;20060;-65
2022/07/13 14:26:28;;;;;;;3.70;1.30;;;;;;;;;;4980370;28;20055;-67
2022/07/13 14:28:55;;;;;;;3.10;1.40;;;;;;;;;;4955282;28;20174;-66
2022/07/13 14:31:24;;;;;;;5.78;1.40;;;;;;;;;;4937477;28;20125;-68
2022/07/13 14:33:52;;;;;;;4.72;1.20;;;;;;;;;;4974224;28;20056;-65
2022/07/13 14:36:23;;;;;;;;;;;;;;;;;;4981014;28;20092;-66
2022/07/13 14:38:49;;;;;;;3.38;1.13;;;;;;;;;;5011276;28;19925;-65
2022/07/13 14:41:16;;;;;;;3.08;1.20;;;;;;;;;;4987544;28;20069;-66
2022/07/13 14:43:42;;;;;;;2.13;1.17;;;;;;;;;;4993266;28;20054;-67
2022/07/13 14:46:09;;;;;;;5.90;1.88;;;;;;;;;;4979277;28;20046;-66
2022/07/13 14:48:36;;;;;;;3.10;1.50;;;;;;;;;;4973718;28;21798;-66
2022/07/13 14:51:04;;;;;;;2.03;1.10;;;;;;;;;;4967941;28;20097;-67
2022/07/13 14:53:30;;;;;;;;;;;;;;;;;;4968794;28;20100;-66
2022/07/13 14:55:58;;;;;;;5.60;1.30;;;;;;;;;;4971373;28;19952;-66
2022/07/13 14:58:25;;;;;;;4.65;1.30;;;;;;;;;;4994331;28;20046;-65
2022/07/13 15:00:57;;;;;;;2.78;1.58;;;;;;;;;;5007312;28;20057;-66
2022/07/13 15:03:25;;;;;;;5.72;1.55;;;;;;;;;;4940832;28;20146;-66